Time;durP1;ratioP1;P1;durP2;ratioP2;P2;SDS_P1;SDS_P2;PMS_P1;PMS_P2;Temp;Humidity;BMP_temperature;BMP_pressure;BME280_temperature;BME280_humidity;BME280_pressure;Samples;Min_cycle;Max_cycle;Signal;HPM_P1;HPM_P2
2024/02/21 00:01:20;;;;;;;37.50;35.30;;;24.90;83.10;;;;;;5049739;28;20216;-73
2024/02/21 00:03:47;;;;;;;30.77;28.77;;;25.00;82.70;;;;;;5049738;28;20554;-72
2024/02/21 00:06:14;;;;;;;25.87;23.97;;;24.90;82.20;;;;;;5050120;28;20199;-72
2024/02/21 00:08:41;;;;;;;19.33;17.63;;;24.90;81.30;;;;;;5053025;28;20204;-74
2024/02/21 00:11:09;;;;;;;15.77;14.53;;;24.90;81.10;;;;;;5047925;28;20188;-72
2024/02/21 00:13:36;;;;;;;14.47;13.40;;;25.00;80.50;;;;;;5048037;28;20187;-73
2024/02/21 00:16:04;;;;;;;11.27;10.40;;;25.30;80.70;;;;;;5050637;28;20534;-75
2024/02/21 00:18:31;;;;;;;10.77;9.70;;;25.70;79.20;;;;;;5046312;28;20179;-73
2024/02/21 00:20:59;;;;;;;7.37;5.77;;;26.10;79.10;;;;;;5045815;28;20574;-72
2024/02/21 00:23:26;;;;;;;6.27;3.83;;;26.30;76.30;;;;;;5050024;28;20184;-72
2024/02/21 00:25:53;;;;;;;5.33;3.00;;;26.60;75.50;;;;;;5048509;28;20681;-73
2024/02/21 00:28:21;;;;;;;5.30;2.60;;;26.80;73.80;;;;;;5048322;28;20274;-74
2024/02/21 00:30:50;;;;;;;6.17;2.30;;;27.20;74.30;;;;;;5049722;28;20184;-73
2024/02/21 00:33:18;;;;;;;5.03;1.60;;;27.40;73.70;;;;;;5047153;28;20215;-72
2024/02/21 00:35:45;;;;;;;6.80;1.53;;;27.10;72.90;;;;;;5048309;28;20312;-73
2024/02/21 00:38:12;;;;;;;4.83;1.50;;;27.20;72.90;;;;;;5048169;28;20294;-73
2024/02/21 00:40:40;;;;;;;2.30;1.23;;;27.40;72.10;;;;;;5048477;28;20175;-73
2024/02/21 00:43:07;;;;;;;3.80;0.97;;;27.60;71.00;;;;;;5041473;28;20219;-73
2024/02/21 00:45:34;;;;;;;3.80;0.90;;;27.20;71.40;;;;;;5047359;28;20184;-73
2024/02/21 00:48:02;;;;;;;3.90;1.10;;;26.80;72.30;;;;;;5049714;28;20210;-73
2024/02/21 00:50:30;;;;;;;2.70;0.83;;;26.40;73.90;;;;;;5044753;28;20252;-73
2024/02/21 00:52:58;;;;;;;4.00;1.10;;;26.60;73.70;;;;;;5048463;28;20180;-74
2024/02/21 00:55:25;;;;;;;7.10;1.23;;;26.40;74.10;;;;;;5047276;28;20290;-73
2024/02/21 00:57:52;;;;;;;3.93;1.10;;;26.30;75.10;;;;;;5043314;28;20202;-72
2024/02/21 01:00:20;;;;;;;3.00;1.00;;;26.20;75.50;;;;;;5048284;28;20538;-74
2024/02/21 01:02:47;;;;;;;4.63;1.20;;;26.70;75.30;;;;;;5047035;28;20224;-74
2024/02/21 01:05:14;;;;;;;2.80;0.87;;;27.00;73.10;;;;;;5046661;28;20191;-74
2024/02/21 01:07:42;;;;;;;3.03;0.87;;;26.80;72.70;;;;;;5045824;28;20203;-74
2024/02/21 01:10:09;;;;;;;6.23;1.10;;;26.50;73.40;;;;;;5045973;28;20181;-73
2024/02/21 01:12:57;;;;;;;3.50;0.90;;;26.30;74.50;;;;;;5052965;28;20638;-76
2024/02/21 01:15:53;;;;;;;3.07;1.07;;;26.10;75.00;;;;;;5049613;28;20215;-78
2024/02/21 01:18:27;;;;;;;5.90;1.13;;;26.00;74.70;;;;;;5047310;28;20725;-80
2024/02/21 01:21:06;;;;;;;5.77;1.30;;;26.00;76.00;;;;;;5045744;28;20180;-79
2024/02/21 01:23:37;;;;;;;4.03;1.10;;;25.80;75.90;;;;;;5042566;28;20278;-73
2024/02/21 01:26:08;;;;;;;4.80;1.20;;;25.80;76.10;;;;;;5044903;28;20188;-73
2024/02/21 01:28:37;;;;;;;4.93;1.10;;;25.90;76.80;;;;;;5043397;28;20184;-74
2024/02/21 01:31:04;;;;;;;7.87;1.40;;;25.80;76.60;;;;;;5043464;28;20235;-75
2024/02/21 01:33:53;;;;;;;3.00;1.00;;;25.90;76.80;;;;;;5044432;28;20219;-80
2024/02/21 01:36:44;;;;;;;2.93;0.97;;;25.80;76.90;;;;;;5047904;28;20235;-77
2024/02/21 01:39:20;;;;;;;3.40;0.93;;;25.80;76.80;;;;;;5042245;28;20298;-74
2024/02/21 01:41:54;;;;;;;5.03;1.07;;;25.80;77.40;;;;;;5048769;28;20219;-78
2024/02/21 01:44:22;;;;;;;4.33;1.20;;;25.70;77.50;;;;;;5048760;28;20196;-72
2024/02/21 01:46:56;;;;;;;4.10;0.97;;;25.70;77.80;;;;;;5050336;28;20196;-76
2024/02/21 01:49:32;;;;;;;5.20;1.03;;;25.70;77.70;;;;;;5050499;28;20329;-75
2024/02/21 01:52:46;;;;;;;9.27;1.27;;;25.80;77.60;;;;;;5050115;28;20261;-76
2024/02/21 01:55:14;;;;;;;2.90;0.90;;;25.80;76.90;;;;;;5046890;28;20180;-78
2024/02/21 01:57:45;;;;;;;5.93;1.20;;;25.90;76.90;;;;;;5053778;28;20187;-72
2024/02/21 02:00:14;;;;;;;7.07;1.40;;;25.90;77.30;;;;;;5052327;28;20661;-73
2024/02/21 02:02:42;;;;;;;3.23;1.07;;;26.00;76.90;;;;;;5044884;28;20220;-73
2024/02/21 02:05:09;;;;;;;4.73;1.10;;;26.00;76.40;;;;;;5050506;28;20577;-72
2024/02/21 02:07:37;;;;;;;3.13;0.93;;;26.10;76.70;;;;;;5047029;28;20199;-72
2024/02/21 02:10:05;;;;;;;7.10;1.27;;;26.10;75.90;;;;;;5053514;28;20180;-73
2024/02/21 02:12:32;;;;;;;6.10;1.10;;;26.20;76.30;;;;;;5049254;28;20192;-73
2024/02/21 02:15:06;;;;;;;5.83;1.40;;;26.20;76.40;;;;;;5051653;28;20176;-73
2024/02/21 02:17:34;;;;;;;2.93;1.20;;;26.10;75.80;;;;;;5050186;28;20183;-73
2024/02/21 02:20:01;;;;;;;9.20;1.37;;;26.10;76.00;;;;;;5051687;28;20180;-74
2024/02/21 02:22:34;;;;;;;4.77;1.53;;;26.10;76.10;;;;;;5051439;28;20230;-73
2024/02/21 02:25:01;;;;;;;2.90;0.80;;;26.20;75.70;;;;;;5053222;28;20211;-72
2024/02/21 02:27:29;;;;;;;4.53;1.30;;;26.10;75.60;;;;;;5052440;28;20219;-72
2024/02/21 02:29:56;;;;;;;3.33;1.10;;;26.30;76.30;;;;;;5052954;28;20180;-72
2024/02/21 02:32:23;;;;;;;4.17;1.37;;;26.30;74.40;;;;;;5053174;28;20188;-72
2024/02/21 02:34:51;;;;;;;4.63;1.27;;;26.50;75.50;;;;;;5053270;28;20182;-73
2024/02/21 02:37:18;;;;;;;4.23;1.40;;;26.60;75.00;;;;;;5053709;28;20192;-73
2024/02/21 02:39:45;;;;;;;4.47;1.13;;;26.70;75.20;;;;;;5052800;28;20229;-72
2024/02/21 02:42:12;;;;;;;6.47;1.67;;;26.80;74.60;;;;;;5051137;28;20274;-72
2024/02/21 02:44:40;;;;;;;4.40;1.00;;;26.90;74.30;;;;;;5050059;28;20180;-71
2024/02/21 02:47:07;;;;;;;6.20;1.20;;;26.90;74.20;;;;;;5051908;28;20194;-72
2024/02/21 02:49:34;;;;;;;8.10;1.37;;;27.30;73.10;;;;;;5049967;28;20546;-72
2024/02/21 02:52:01;;;;;;;5.60;1.30;;;27.80;70.90;;;;;;5047704;28;20184;-74
2024/02/21 02:54:29;;;;;;;4.50;1.10;;;28.10;69.50;;;;;;5050077;28;20180;-71
2024/02/21 02:56:56;;;;;;;4.17;1.00;;;28.00;69.00;;;;;;5052129;28;20194;-71
2024/02/21 02:59:23;;;;;;;3.77;0.80;;;28.40;68.60;;;;;;5049011;28;20302;-72
2024/02/21 03:01:51;;;;;;;3.83;2.00;;;28.40;69.00;;;;;;5052411;28;20208;-72
2024/02/21 03:04:18;;;;;;;1.57;0.77;;;28.10;69.40;;;;;;5046880;28;20206;-73
2024/02/21 03:06:45;;;;;;;2.73;0.80;;;28.40;68.80;;;;;;5047044;28;20186;-71
2024/02/21 03:09:13;;;;;;;5.33;1.30;;;28.40;68.80;;;;;;5050075;28;20258;-74
2024/02/21 03:11:42;;;;;;;5.20;0.70;;;28.40;68.90;;;;;;5048680;28;20581;-75
2024/02/21 03:14:10;;;;;;;2.80;1.00;;;28.30;68.20;;;;;;5046555;28;20172;-75
2024/02/21 03:16:38;;;;;;;3.50;1.00;;;28.50;67.20;;;;;;5045601;28;20283;-75
2024/02/21 03:19:05;;;;;;;3.97;0.80;;;28.70;67.60;;;;;;5045925;28;20193;-74
2024/02/21 03:21:32;;;;;;;4.50;1.27;;;29.00;66.70;;;;;;5050081;28;20618;-74
2024/02/21 03:23:59;;;;;;;4.37;1.40;;;29.10;66.30;;;;;;5048511;28;20180;-74
2024/02/21 03:26:27;;;;;;;3.63;0.83;;;29.20;66.30;;;;;;5046897;28;20210;-76
2024/02/21 03:28:54;;;;;;;3.72;0.90;;;29.40;65.30;;;;;;5049798;28;20184;-75
2024/02/21 03:31:21;;;;;;;3.13;0.80;;;29.00;67.50;;;;;;5050667;28;20188;-73
2024/02/21 03:33:48;;;;;;;2.15;0.85;;;29.50;66.60;;;;;;5049966;28;20259;-72
2024/02/21 03:36:16;;;;;;;2.67;0.80;;;29.70;66.20;;;;;;5045874;28;20274;-75
2024/02/21 03:38:43;;;;;;;3.50;0.63;;;29.20;67.40;;;;;;5049261;28;20318;-75
2024/02/21 03:41:10;;;;;;;4.60;1.10;;;28.80;68.40;;;;;;5047147;28;20597;-72
2024/02/21 03:43:41;;;;;;;6.90;1.17;;;28.60;69.30;;;;;;5048006;28;20179;-72
2024/02/21 03:46:08;;;;;;;3.33;0.87;;;28.90;68.50;;;;;;5049179;28;20271;-72
2024/02/21 03:48:37;;;;;;;3.23;0.90;;;28.80;67.30;;;;;;5046659;28;20184;-71
2024/02/21 03:51:04;;;;;;;4.10;1.03;;;28.70;68.80;;;;;;5046647;28;20188;-72
2024/02/21 03:53:32;;;;;;;4.57;0.90;;;29.30;67.80;;;;;;5044021;28;20605;-72
2024/02/21 03:56:03;;;;;;;8.00;1.10;;;29.60;67.40;;;;;;5045837;28;20191;-72
2024/02/21 03:58:31;;;;;;;5.00;0.90;;;29.70;65.60;;;;;;5048229;28;20192;-71
2024/02/21 04:01:01;;;;;;;4.23;0.90;;;29.20;66.00;;;;;;5048782;28;20184;-73
2024/02/21 04:03:29;;;;;;;4.00;1.00;;;28.90;67.30;;;;;;5043492;28;20204;-72
2024/02/21 04:05:56;;;;;;;4.43;0.90;;;29.80;65.80;;;;;;5046800;28;20179;-72
2024/02/21 04:08:24;;;;;;;2.30;0.60;;;30.10;63.90;;;;;;5047220;28;20198;-71
2024/02/21 04:10:51;;;;;;;1.42;0.55;;;30.00;62.50;;;;;;5047044;28;20195;-72
2024/02/21 04:13:18;;;;;;;2.30;0.70;;;30.00;62.50;;;;;;5050046;28;20554;-74
2024/02/21 04:15:46;;;;;;;1.02;0.52;;;30.30;62.30;;;;;;5048529;28;20179;-72
2024/02/21 04:18:14;;;;;;;1.38;0.60;;;30.00;62.50;;;;;;5044129;28;20187;-72
2024/02/21 04:20:42;;;;;;;2.80;0.50;;;29.80;62.90;;;;;;5043006;28;20194;-73
2024/02/21 04:23:09;;;;;;;1.65;0.60;;;30.30;62.00;;;;;;5047330;28;20686;-75
2024/02/21 04:25:37;;;;;;;1.95;0.50;;;30.60;61.60;;;;;;5045024;28;20654;-73
2024/02/21 04:28:05;;;;;;;1.77;0.57;;;30.80;60.60;;;;;;5047843;28;20184;-75
2024/02/21 04:30:33;;;;;;;2.47;0.68;;;30.70;59.70;;;;;;5049345;28;20282;-74
2024/02/21 04:33:00;;;;;;;1.60;0.55;;;31.00;59.70;;;;;;5045235;28;20198;-73
2024/02/21 04:35:27;;;;;;;2.20;0.50;;;31.00;58.70;;;;;;5044498;28;20771;-69
2024/02/21 04:37:55;;;;;;;1.60;0.70;;;30.80;59.30;;;;;;5046292;28;20198;-72
2024/02/21 04:40:22;;;;;;;2.17;0.40;;;31.00;59.80;;;;;;5044155;28;20175;-72
2024/02/21 04:42:49;;;;;;;2.28;0.47;;;31.60;57.60;;;;;;5046646;28;20330;-75
2024/02/21 04:45:17;;;;;;;7.03;0.60;;;31.50;56.70;;;;;;5046359;28;20176;-75
2024/02/21 04:47:45;;;;;;;1.58;0.50;;;31.90;57.30;;;;;;5044139;28;20285;-76
2024/02/21 04:50:12;;;;;;;2.67;0.70;;;32.10;57.10;;;;;;5046477;28;20180;-72
2024/02/21 04:52:40;;;;;;;2.00;0.73;;;31.70;56.40;;;;;;5043917;28;20183;-74
2024/02/21 04:55:07;;;;;;;1.25;0.57;;;31.60;56.90;;;;;;5043836;28;20179;-72
2024/02/21 04:57:35;;;;;;;1.92;0.68;;;32.60;55.00;;;;;;5045737;28;20180;-75
2024/02/21 05:00:03;;;;;;;1.85;0.80;;;32.30;56.00;;;;;;5045454;28;20180;-72
2024/02/21 05:02:30;;;;;;;1.52;0.60;;;31.80;58.00;;;;;;5050870;28;20700;-73
2024/02/21 05:04:58;;;;;;;2.10;0.80;;;31.40;58.60;;;;;;5043917;28;20202;-72
2024/02/21 05:07:25;;;;;;;2.25;0.68;;;30.50;60.70;;;;;;5049643;28;20291;-73
2024/02/21 05:09:52;;;;;;;0.90;0.70;;;30.30;62.40;;;;;;5049326;28;20167;-73
2024/02/21 05:12:20;;;;;;;1.73;0.70;;;30.80;60.90;;;;;;5049099;28;20184;-73
2024/02/21 05:14:47;;;;;;;3.05;0.98;;;30.30;62.40;;;;;;5046059;28;20200;-71
2024/02/21 05:17:15;;;;;;;2.78;1.35;;;29.30;64.60;;;;;;5048415;28;20191;-74
2024/02/21 05:19:42;;;;;;;5.67;1.07;;;29.00;65.20;;;;;;5047367;28;20266;-72
2024/02/21 05:22:10;;;;;;;1.63;0.70;;;28.90;66.80;;;;;;5047558;28;20215;-75
2024/02/21 05:24:40;;;;;;;2.20;0.90;;;28.80;66.70;;;;;;5048543;28;20734;-71
2024/02/21 05:27:07;;;;;;;3.40;0.77;;;29.30;65.70;;;;;;5052682;28;20176;-76
2024/02/21 05:29:34;;;;;;;3.00;1.10;;;28.90;66.40;;;;;;5053797;28;20218;-74
2024/02/21 05:32:02;;;;;;;2.53;0.60;;;29.40;65.30;;;;;;5052232;28;20543;-73
2024/02/21 05:34:29;;;;;;;3.70;0.90;;;30.00;62.20;;;;;;5050155;28;20226;-73
2024/02/21 05:36:59;;;;;;;3.05;1.30;;;29.80;64.90;;;;;;5053089;28;20311;-72
2024/02/21 05:39:29;;;;;;;6.38;0.90;;;30.10;64.00;;;;;;5053396;28;20192;-71
2024/02/21 05:41:56;;;;;;;1.97;0.70;;;29.60;64.80;;;;;;5052910;28;20223;-72
2024/02/21 05:44:24;;;;;;;3.15;1.05;;;29.20;65.60;;;;;;5051795;28;20192;-73
2024/02/21 05:46:51;;;;;;;2.73;0.80;;;28.80;66.30;;;;;;5053898;28;20266;-71
2024/02/21 05:49:18;;;;;;;1.23;0.70;;;28.40;68.30;;;;;;5051934;28;20267;-71
2024/02/21 05:51:45;;;;;;;4.97;1.13;;;28.30;69.30;;;;;;5051106;28;20185;-71
2024/02/21 05:54:13;;;;;;;2.03;1.00;;;28.20;69.40;;;;;;5052868;28;20183;-71
2024/02/21 05:56:44;;;;;;;3.83;0.97;;;28.10;68.90;;;;;;5053712;28;20184;-71
2024/02/21 05:59:11;;;;;;;3.73;1.00;;;27.90;70.40;;;;;;5052113;28;20189;-74
2024/02/21 06:01:38;;;;;;;2.63;1.07;;;28.10;70.70;;;;;;5053240;28;20252;-69
2024/02/21 06:04:06;;;;;;;3.53;1.00;;;28.30;69.20;;;;;;5051654;28;20693;-72
2024/02/21 06:06:34;;;;;;;4.20;1.07;;;28.80;67.50;;;;;;5053211;28;20187;-71
2024/02/21 06:09:02;;;;;;;2.73;1.40;;;28.80;69.10;;;;;;5052149;28;20199;-72
2024/02/21 06:11:30;;;;;;;2.70;1.20;;;28.50;69.90;;;;;;5047730;28;20192;-73
2024/02/21 06:13:57;;;;;;;2.90;1.00;;;28.40;70.30;;;;;;5048649;28;20235;-72
2024/02/21 06:16:24;;;;;;;4.17;0.90;;;28.20;70.30;;;;;;5050583;28;20215;-72
2024/02/21 06:18:52;;;;;;;3.37;1.00;;;27.90;69.70;;;;;;5053643;28;20514;-71
2024/02/21 06:21:19;;;;;;;3.73;1.10;;;27.70;70.10;;;;;;5053194;28;20210;-72
2024/02/21 06:23:46;;;;;;;3.53;1.33;;;27.60;70.80;;;;;;5053686;28;20184;-74
2024/02/21 06:26:13;;;;;;;3.80;1.20;;;27.40;71.20;;;;;;5052135;28;20275;-71
2024/02/21 06:28:41;;;;;;;7.60;1.20;;;27.20;72.30;;;;;;5050105;28;20593;-72
2024/02/21 06:31:08;;;;;;;3.37;1.20;;;27.10;72.60;;;;;;5049940;28;20200;-72
2024/02/21 06:33:35;;;;;;;4.60;1.37;;;27.10;73.20;;;;;;5051403;28;20188;-72
2024/02/21 06:36:03;;;;;;;4.83;1.13;;;27.20;73.90;;;;;;5052124;28;20278;-72
2024/02/21 06:38:30;;;;;;;1.87;0.93;;;27.30;72.90;;;;;;5052214;28;20207;-72
2024/02/21 06:41:00;;;;;;;4.10;0.93;;;27.30;73.10;;;;;;5051089;28;20546;-72
2024/02/21 06:43:27;;;;;;;2.80;0.90;;;27.20;73.40;;;;;;5050430;28;20935;-72
2024/02/21 06:45:56;;;;;;;2.87;0.80;;;27.00;73.10;;;;;;5053410;28;20180;-71
2024/02/21 06:48:24;;;;;;;3.23;0.93;;;26.80;72.80;;;;;;5052491;28;20188;-71
2024/02/21 06:50:51;;;;;;;2.83;1.20;;;26.70;73.10;;;;;;5052528;28;20298;-71
2024/02/21 06:53:18;;;;;;;2.93;1.33;;;26.60;73.20;;;;;;5052811;28;20275;-71
2024/02/21 06:55:45;;;;;;;2.60;0.90;;;27.00;73.50;;;;;;5048459;28;20192;-75
2024/02/21 06:58:13;;;;;;;4.80;1.20;;;27.90;70.20;;;;;;5053319;28;20191;-74
2024/02/21 07:00:42;;;;;;;3.67;1.10;;;28.80;67.80;;;;;;5052539;28;20180;-73
2024/02/21 07:03:09;;;;;;;2.37;1.07;;;29.20;66.10;;;;;;5052608;28;20708;-72
2024/02/21 07:05:37;;;;;;;2.80;1.00;;;29.60;64.10;;;;;;5052662;28;20698;-72
2024/02/21 07:08:04;;;;;;;3.17;0.83;;;29.50;64.60;;;;;;5048880;28;20196;-73
2024/02/21 07:10:32;;;;;;;2.63;0.80;;;29.50;64.00;;;;;;5052153;28;20187;-72
2024/02/21 07:13:00;;;;;;;3.03;1.00;;;29.10;65.40;;;;;;5046872;28;20192;-72
2024/02/21 07:15:28;;;;;;;2.20;0.93;;;28.60;66.30;;;;;;5049761;28;20784;-72
2024/02/21 07:17:55;;;;;;;4.23;1.40;;;28.40;66.60;;;;;;5048643;28;20186;-73
2024/02/21 07:20:23;;;;;;;2.70;1.27;;;28.30;67.20;;;;;;5050520;28;20646;-72
2024/02/21 07:22:50;;;;;;;3.37;1.23;;;28.40;67.70;;;;;;5052285;28;20720;-72
2024/02/21 07:25:18;;;;;;;4.47;1.40;;;28.50;67.70;;;;;;5047169;28;20192;-72
2024/02/21 07:27:45;;;;;;;4.03;1.20;;;29.30;64.50;;;;;;5049498;28;20214;-73
2024/02/21 07:30:13;;;;;;;3.53;1.17;;;29.30;65.50;;;;;;5046345;28;20670;-71
2024/02/21 07:32:40;;;;;;;5.35;1.13;;;30.10;63.10;;;;;;5052078;28;20241;-72
2024/02/21 07:35:11;;;;;;;3.55;0.93;;;30.00;62.50;;;;;;5048372;28;20200;-71
2024/02/21 07:37:39;;;;;;;1.45;0.70;;;29.70;63.10;;;;;;5045827;28;20191;-73
2024/02/21 07:40:15;;;;;;;5.57;1.05;;;29.80;64.00;;;;;;5049307;28;20229;-70
2024/02/21 07:42:43;;;;;;;1.67;1.03;;;29.60;63.90;;;;;;5049606;28;20231;-72
2024/02/21 07:45:10;;;;;;;5.35;1.10;;;29.70;64.00;;;;;;5049010;28;20639;-72
2024/02/21 07:47:40;;;;;;;4.60;1.20;;;29.40;64.30;;;;;;5044794;28;20180;-71
2024/02/21 07:50:08;;;;;;;6.97;1.20;;;29.10;66.40;;;;;;5049463;28;20263;-72
2024/02/21 07:52:36;;;;;;;5.00;1.13;;;29.00;66.40;;;;;;5050767;28;20188;-72
2024/02/21 07:55:03;;;;;;;3.47;1.17;;;29.10;66.60;;;;;;5045505;28;20527;-71
2024/02/21 07:57:30;;;;;;;5.00;1.27;;;28.70;66.00;;;;;;5046886;28;20646;-72
2024/02/21 07:59:58;;;;;;;6.47;1.30;;;27.90;68.10;;;;;;5045961;28;20188;-72
2024/02/21 08:02:25;;;;;;;6.07;1.43;;;27.40;70.00;;;;;;5049443;28;20219;-71
2024/02/21 08:04:52;;;;;;;5.20;1.40;;;27.00;72.30;;;;;;5049139;28;20179;-72
2024/02/21 08:07:20;;;;;;;4.03;1.20;;;26.80;73.30;;;;;;5052006;28;20215;-71
2024/02/21 08:09:47;;;;;;;8.63;2.47;;;26.50;73.60;;;;;;5050401;28;20179;-71
2024/02/21 08:12:14;;;;;;;7.20;2.00;;;26.20;75.20;;;;;;5048922;28;20278;-73
2024/02/21 08:14:43;;;;;;;8.60;1.70;;;26.00;75.40;;;;;;5051084;28;20783;-72
2024/02/21 08:17:10;;;;;;;4.40;1.43;;;25.90;76.20;;;;;;5051516;28;20191;-72
2024/02/21 08:19:38;;;;;;;3.93;1.60;;;25.80;76.80;;;;;;5045683;28;20188;-72
2024/02/21 08:22:06;;;;;;;5.37;1.70;;;25.80;77.10;;;;;;5051833;28;20835;-73
2024/02/21 08:24:34;;;;;;;3.73;1.30;;;25.70;77.40;;;;;;5050115;28;20269;-73
2024/02/21 08:27:01;;;;;;;3.80;1.33;;;25.50;78.00;;;;;;5048567;28;20176;-71
2024/02/21 08:29:28;;;;;;;4.33;1.67;;;25.50;78.60;;;;;;5047273;28;20175;-72
2024/02/21 08:31:55;;;;;;;6.10;1.80;;;25.30;79.10;;;;;;5050100;28;20179;-75
2024/02/21 08:34:23;;;;;;;9.70;1.63;;;25.20;79.70;;;;;;5050204;28;20207;-74
2024/02/21 08:36:50;;;;;;;5.70;1.50;;;25.20;80.70;;;;;;5051097;28;20244;-75
2024/02/21 08:39:18;;;;;;;8.07;2.10;;;25.00;81.40;;;;;;5050111;28;20184;-74
2024/02/21 08:41:45;;;;;;;4.40;1.57;;;25.00;81.60;;;;;;5050110;28;20203;-75
2024/02/21 08:44:12;;;;;;;10.10;2.23;;;24.90;82.30;;;;;;5050574;28;20658;-74
2024/02/21 08:46:40;;;;;;;7.33;1.90;;;24.80;82.40;;;;;;5050810;28;20617;-74
2024/02/21 08:49:07;;;;;;;7.13;1.90;;;24.70;82.50;;;;;;5048050;28;20194;-74
2024/02/21 08:51:35;;;;;;;11.27;2.20;;;24.60;83.10;;;;;;5051101;28;20188;-74
2024/02/21 08:54:02;;;;;;;6.83;2.20;;;24.60;83.50;;;;;;5043072;28;20609;-75
2024/02/21 08:56:31;;;;;;;7.97;2.97;;;24.50;83.70;;;;;;5047916;28;20180;-73
2024/02/21 08:58:58;;;;;;;14.93;3.37;;;24.40;83.80;;;;;;5048553;28;20216;-72
2024/02/21 09:01:26;;;;;;;6.47;3.20;;;24.30;84.10;;;;;;5050348;28;20212;-74
2024/02/21 09:03:53;;;;;;;7.17;3.47;;;24.30;84.30;;;;;;5050545;28;20646;-73
2024/02/21 09:06:21;;;;;;;11.57;3.97;;;24.30;84.50;;;;;;5048034;28;20191;-76
2024/02/21 09:08:48;;;;;;;8.33;3.97;;;24.20;84.90;;;;;;5047471;28;20578;-74
2024/02/21 09:11:16;;;;;;;7.70;4.93;;;24.10;85.00;;;;;;5050102;28;20452;-72
2024/02/21 09:13:43;;;;;;;7.73;5.13;;;24.10;85.00;;;;;;5050067;28;20184;-71
2024/02/21 09:16:10;;;;;;;6.00;5.33;;;24.10;85.30;;;;;;5044677;28;20184;-71
2024/02/21 09:18:38;;;;;;;6.03;5.47;;;24.00;85.70;;;;;;5050637;28;20180;-70
2024/02/21 09:21:05;;;;;;;6.07;5.50;;;23.90;85.80;;;;;;5046817;28;20175;-71
2024/02/21 09:23:32;;;;;;;8.30;6.10;;;23.90;85.90;;;;;;5049376;28;20265;-71
2024/02/21 09:26:03;;;;;;;9.63;6.20;;;23.90;86.30;;;;;;5049431;28;20191;-71
2024/02/21 09:28:30;;;;;;;9.60;6.70;;;23.80;86.40;;;;;;5050248;28;20184;-71
2024/02/21 09:30:58;;;;;;;10.40;7.93;;;23.80;86.60;;;;;;5049795;28;20188;-71
2024/02/21 09:33:25;;;;;;;9.40;6.77;;;23.80;86.80;;;;;;5050035;28;20232;-71
2024/02/21 09:35:52;;;;;;;8.43;7.50;;;23.80;86.90;;;;;;5049102;28;20227;-71
2024/02/21 09:38:20;;;;;;;9.70;8.10;;;23.70;87.10;;;;;;5050242;28;20212;-71
2024/02/21 09:40:52;;;;;;;9.60;8.57;;;23.80;87.20;;;;;;5049164;28;20681;-71
2024/02/21 09:43:20;;;;;;;11.03;9.97;;;23.80;87.30;;;;;;5049649;28;20674;-71
2024/02/21 09:45:48;;;;;;;14.87;10.33;;;23.80;87.30;;;;;;5049316;28;20267;-71
2024/02/21 09:49:07;;;;;;;11.97;10.83;;;23.70;87.50;;;;;;5050431;28;20188;-71
2024/02/21 09:51:36;;;;;;;15.97;10.63;;;23.80;87.70;;;;;;5045084;28;20599;-72
2024/02/21 09:54:04;;;;;;;13.97;9.90;;;23.70;87.80;;;;;;5045981;28;20188;-71
2024/02/21 09:56:32;;;;;;;12.10;10.73;;;23.80;88.00;;;;;;5050012;28;20195;-75
2024/02/21 09:58:59;;;;;;;11.67;10.67;;;23.70;87.90;;;;;;5049271;28;20180;-74
2024/02/21 10:01:27;;;;;;;11.53;10.50;;;23.70;88.10;;;;;;5050020;28;20224;-75
2024/02/21 10:03:54;;;;;;;17.87;12.20;;;23.70;88.20;;;;;;5050182;28;20211;-73
2024/02/21 10:06:22;;;;;;;14.10;12.67;;;23.70;88.20;;;;;;5050117;28;20184;-75
2024/02/21 10:08:55;;;;;;;15.57;13.90;;;23.70;88.10;;;;;;5053063;28;20262;-74
2024/02/21 10:11:26;;;;;;;14.63;13.43;;;23.60;88.20;;;;;;5052989;28;20274;-75
2024/02/21 10:14:15;;;;;;;15.30;13.83;;;23.60;88.40;;;;;;5051142;28;20619;-71
2024/02/21 10:16:42;;;;;;;16.33;14.87;;;23.60;88.60;;;;;;5053361;28;20183;-74
2024/02/21 10:19:22;;;;;;;18.77;15.90;;;23.50;88.60;;;;;;5053497;28;20188;-75
2024/02/21 10:22:05;;;;;;;17.33;15.27;;;23.50;88.80;;;;;;5053475;28;20254;-73
2024/02/21 10:24:33;;;;;;;18.13;15.03;;;23.50;88.80;;;;;;5053650;28;20252;-76
2024/02/21 10:27:08;;;;;;;16.70;15.17;;;23.50;89.00;;;;;;5053809;28;20215;-76
2024/02/21 10:29:36;;;;;;;19.80;17.70;;;23.40;89.00;;;;;;5052984;28;20245;-75
2024/02/21 10:32:15;;;;;;;20.10;18.53;;;23.40;89.10;;;;;;5049699;28;20249;-75
2024/02/21 10:34:43;;;;;;;22.23;19.80;;;23.40;89.30;;;;;;5051983;28;20180;-74
2024/02/21 10:37:11;;;;;;;22.57;20.37;;;23.40;89.30;;;;;;5048513;28;20200;-73
2024/02/21 10:39:41;;;;;;;22.47;20.80;;;23.40;89.40;;;;;;5052819;28;20211;-73
2024/02/21 10:42:12;;;;;;;23.77;21.57;;;23.40;89.50;;;;;;5051517;28;20705;-73
2024/02/21 10:44:41;;;;;;;22.17;20.07;;;23.30;89.70;;;;;;5046420;28;20245;-75
2024/02/21 10:47:16;;;;;;;26.70;24.63;;;23.30;89.80;;;;;;5052358;28;20765;-75
2024/02/21 10:49:47;;;;;;;26.50;24.37;;;23.30;89.90;;;;;;5049505;28;20182;-74
2024/02/21 10:52:26;;;;;;;29.90;27.60;;;23.20;90.00;;;;;;5051585;28;20183;-72
2024/02/21 10:55:08;;;;;;;33.53;30.93;;;23.20;90.20;;;;;;5051654;28;20176;-72
2024/02/21 10:57:38;;;;;;;31.60;29.40;;;23.20;90.30;;;;;;5052666;28;20238;-72
2024/02/21 11:00:08;;;;;;;32.20;30.00;;;23.20;90.40;;;;;;5051374;28;20180;-75
2024/02/21 11:02:35;;;;;;;34.60;31.60;;;23.20;90.40;;;;;;5051442;28;20631;-72
2024/02/21 11:05:04;;;;;;;32.77;30.57;;;23.10;90.40;;;;;;5050859;28;20263;-72
2024/02/21 11:07:33;;;;;;;30.50;28.37;;;23.10;90.50;;;;;;5052661;28;20245;-73
2024/02/21 11:10:07;;;;;;;36.07;33.70;;;23.00;90.70;;;;;;5052709;28;20226;-74
2024/02/21 11:12:34;;;;;;;40.70;37.73;;;23.00;90.80;;;;;;5053132;28;20203;-72
2024/02/21 11:15:12;;;;;;;36.07;33.53;;;23.00;90.90;;;;;;5052973;28;20229;-70
2024/02/21 11:17:42;;;;;;;38.80;36.07;;;22.90;90.90;;;;;;5048382;28;20203;-71
2024/02/21 11:20:13;;;;;;;40.50;37.60;;;22.90;91.00;;;;;;5051945;28;20195;-73
2024/02/21 11:22:44;;;;;;;42.67;39.57;;;22.90;91.00;;;;;;5051534;28;20215;-73
2024/02/21 11:25:23;;;;;;;50.07;46.83;;;22.90;91.00;;;;;;5051439;28;20202;-72
2024/02/21 11:27:53;;;;;;;56.70;53.27;;;22.80;91.10;;;;;;5052266;28;20596;-71
2024/02/21 11:30:38;;;;;;;56.27;52.40;;;22.80;91.10;;;;;;5052100;28;20187;-71
2024/02/21 11:33:09;;;;;;;66.93;62.83;;;22.80;91.20;;;;;;5051521;28;20267;-72
2024/02/21 11:35:39;;;;;;;63.87;60.20;;;22.80;91.20;;;;;;5052603;28;20578;-72
2024/02/21 11:38:16;;;;;;;73.70;69.20;;;22.80;91.10;;;;;;5049599;28;20187;-74
2024/02/21 11:40:47;;;;;;;77.23;72.60;;;22.80;91.20;;;;;;5050454;28;20176;-74
2024/02/21 11:43:15;;;;;;;82.33;77.57;;;22.80;91.30;;;;;;5052365;28;20220;-73
2024/02/21 11:45:45;;;;;;;90.27;84.73;;;22.80;91.40;;;;;;5051115;28;20173;-72
2024/02/21 11:48:12;;;;;;;85.40;80.40;;;22.80;91.40;;;;;;5048860;28;20180;-71
2024/02/21 11:50:40;;;;;;;93.33;88.30;;;22.80;91.40;;;;;;5052238;28;20222;-75
2024/02/21 11:53:09;;;;;;;94.87;89.50;;;22.80;91.40;;;;;;5053449;28;20497;-72
2024/02/21 11:55:36;;;;;;;101.40;95.77;;;22.80;91.50;;;;;;5051775;28;20187;-76
2024/02/21 11:58:04;;;;;;;107.93;101.83;;;22.80;91.60;;;;;;5049746;28;20187;-75
2024/02/21 12:00:32;;;;;;;107.43;101.63;;;22.80;91.50;;;;;;5049893;28;20190;-71
2024/02/21 12:03:02;;;;;;;119.30;112.50;;;22.80;91.50;;;;;;5047531;28;20247;-75
2024/02/21 12:05:30;;;;;;;119.80;113.27;;;22.80;91.60;;;;;;5050009;28;20175;-72
2024/02/21 12:08:04;;;;;;;115.20;108.87;;;22.80;91.60;;;;;;5052039;28;20188;-76
2024/02/21 12:10:33;;;;;;;109.83;103.80;;;22.80;91.70;;;;;;5051342;28;20266;-71
2024/02/21 12:13:09;;;;;;;114.97;108.80;;;22.80;91.70;;;;;;5051647;28;20527;-73
2024/02/21 12:15:38;;;;;;;114.77;108.43;;;22.80;91.70;;;;;;5051372;28;20218;-75
2024/02/21 12:18:13;;;;;;;124.70;118.23;;;22.80;91.60;;;;;;5048907;28;20191;-74
2024/02/21 12:20:42;;;;;;;126.93;120.60;;;22.80;91.30;;;;;;5051627;28;20557;-73
2024/02/21 12:23:12;;;;;;;119.87;113.67;;;22.80;91.30;;;;;;5051713;28;20264;-72
2024/02/21 12:25:40;;;;;;;129.63;122.93;;;22.80;91.40;;;;;;5048403;28;20180;-70
2024/02/21 12:28:07;;;;;;;121.43;115.30;;;22.80;91.20;;;;;;5051459;28;20528;-71
2024/02/21 12:30:38;;;;;;;121.67;115.20;;;22.80;91.20;;;;;;5049358;28;20668;-73
2024/02/21 12:33:05;;;;;;;124.67;118.27;;;22.80;91.20;;;;;;5050419;28;20183;-74
2024/02/21 12:35:33;;;;;;;126.83;120.30;;;22.80;91.20;;;;;;5051716;28;20585;-73
2024/02/21 12:38:01;;;;;;;134.07;127.13;;;22.80;91.30;;;;;;5051382;28;20202;-72
2024/02/21 12:40:32;;;;;;;136.77;129.57;;;22.80;91.30;;;;;;5050494;28;20188;-71
2024/02/21 12:43:02;;;;;;;130.63;123.87;;;22.80;91.30;;;;;;5048356;28;20262;-71
2024/02/21 12:45:30;;;;;;;129.27;122.57;;;22.80;91.30;;;;;;5050435;28;20184;-73
2024/02/21 12:48:00;;;;;;;142.13;134.87;;;22.70;91.30;;;;;;5047480;28;20191;-72
2024/02/21 12:50:27;;;;;;;139.47;131.70;;;22.70;91.30;;;;;;5050447;28;20281;-77